sensor_id;sensor_type;location;lat;lon;timestamp;P1;durP1;ratioP1;P2;durP2;ratioP2
74293;SDS011;64044;59.904;10.738;2023-02-21T00:02:31;0.68;;;0.30;;
74293;SDS011;64044;59.904;10.738;2023-02-21T00:05:15;0.82;;;0.40;;
74293;SDS011;64044;59.904;10.738;2023-02-21T00:07:59;0.80;;;0.40;;
74293;SDS011;64044;59.904;10.738;2023-02-21T00:10:43;1.58;;;0.52;;
74293;SDS011;64044;59.904;10.738;2023-02-21T00:13:27;0.60;;;0.30;;
74293;SDS011;64044;59.904;10.738;2023-02-21T00:16:15;1.05;;;0.28;;
74293;SDS011;64044;59.904;10.738;2023-02-21T00:19:00;1.17;;;0.52;;
74293;SDS011;64044;59.904;10.738;2023-02-21T00:21:45;0.32;;;0.10;;
74293;SDS011;64044;59.904;10.738;2023-02-21T00:24:29;0.50;;;0.25;;
74293;SDS011;64044;59.904;10.738;2023-02-21T00:27:13;0.30;;;0.10;;
74293;SDS011;64044;59.904;10.738;2023-02-21T00:29:57;0.35;;;0.30;;
74293;SDS011;64044;59.904;10.738;2023-02-21T00:32:41;0.85;;;0.43;;
74293;SDS011;64044;59.904;10.738;2023-02-21T00:35:26;0.40;;;0.30;;
74293;SDS011;64044;59.904;10.738;2023-02-21T00:38:10;0.32;;;0.17;;
74293;SDS011;64044;59.904;10.738;2023-02-21T00:40:54;0.35;;;0.28;;
74293;SDS011;64044;59.904;10.738;2023-02-21T00:43:38;0.17;;;0.17;;
74293;SDS011;64044;59.904;10.738;2023-02-21T00:46:23;0.50;;;0.45;;
74293;SDS011;64044;59.904;10.738;2023-02-21T00:49:07;0.60;;;0.38;;
74293;SDS011;64044;59.904;10.738;2023-02-21T00:51:52;1.38;;;0.30;;
74293;SDS011;64044;59.904;10.738;2023-02-21T00:54:36;1.95;;;0.20;;
74293;SDS011;64044;59.904;10.738;2023-02-21T00:57:20;0.50;;;0.20;;
74293;SDS011;64044;59.904;10.738;2023-02-21T01:00:06;0.35;;;0.17;;
74293;SDS011;64044;59.904;10.738;2023-02-21T01:02:51;0.20;;;0.10;;
74293;SDS011;64044;59.904;10.738;2023-02-21T01:05:35;0.10;;;0.10;;
74293;SDS011;64044;59.904;10.738;2023-02-21T01:08:20;0.43;;;0.20;;
74293;SDS011;64044;59.904;10.738;2023-02-21T01:11:04;0.93;;;0.25;;
74293;SDS011;64044;59.904;10.738;2023-02-21T01:13:48;0.80;;;0.20;;
74293;SDS011;64044;59.904;10.738;2023-02-21T01:16:32;0.20;;;0.20;;
74293;SDS011;64044;59.904;10.738;2023-02-21T01:19:17;1.35;;;0.20;;
74293;SDS011;64044;59.904;10.738;2023-02-21T01:22:02;2.45;;;0.20;;
74293;SDS011;64044;59.904;10.738;2023-02-21T01:24:50;0.10;;;0.10;;
74293;SDS011;64044;59.904;10.738;2023-02-21T01:27:34;1.08;;;0.40;;
74293;SDS011;64044;59.904;10.738;2023-02-21T01:30:19;0.98;;;0.50;;
74293;SDS011;64044;59.904;10.738;2023-02-21T01:33:03;0.93;;;0.50;;
74293;SDS011;64044;59.904;10.738;2023-02-21T01:35:48;3.55;;;0.90;;
74293;SDS011;64044;59.904;10.738;2023-02-21T01:38:33;1.67;;;0.85;;
74293;SDS011;64044;59.904;10.738;2023-02-21T01:41:18;1.00;;;0.60;;
74293;SDS011;64044;59.904;10.738;2023-02-21T01:44:05;2.08;;;1.00;;
74293;SDS011;64044;59.904;10.738;2023-02-21T01:47:10;4.18;;;0.90;;
74293;SDS011;64044;59.904;10.738;2023-02-21T01:49:55;1.52;;;0.85;;
74293;SDS011;64044;59.904;10.738;2023-02-21T01:52:40;2.25;;;0.90;;
74293;SDS011;64044;59.904;10.738;2023-02-21T01:55:25;2.70;;;0.70;;
74293;SDS011;64044;59.904;10.738;2023-02-21T01:58:09;0.60;;;0.57;;
74293;SDS011;64044;59.904;10.738;2023-02-21T02:00:54;0.90;;;0.60;;
74293;SDS011;64044;59.904;10.738;2023-02-21T02:03:38;3.03;;;0.75;;
74293;SDS011;64044;59.904;10.738;2023-02-21T02:06:24;3.75;;;0.60;;
74293;SDS011;64044;59.904;10.738;2023-02-21T02:09:13;0.68;;;0.47;;
74293;SDS011;64044;59.904;10.738;2023-02-21T02:23:10;2.10;;;0.68;;
74293;SDS011;64044;59.904;10.738;2023-02-21T02:36:33;1.17;;;0.98;;
74293;SDS011;64044;59.904;10.738;2023-02-21T02:41:54;2.70;;;1.17;;
74293;SDS011;64044;59.904;10.738;2023-02-21T02:47:24;1.70;;;1.00;;
74293;SDS011;64044;59.904;10.738;2023-02-21T02:49:55;1.23;;;0.85;;
74293;SDS011;64044;59.904;10.738;2023-02-21T02:52:23;1.92;;;1.10;;
74293;SDS011;64044;59.904;10.738;2023-02-21T02:55:02;2.65;;;1.33;;
74293;SDS011;64044;59.904;10.738;2023-02-21T02:57:30;4.10;;;1.17;;
74293;SDS011;64044;59.904;10.738;2023-02-21T03:00:04;2.58;;;1.10;;
74293;SDS011;64044;59.904;10.738;2023-02-21T03:08:41;1.90;;;0.98;;
74293;SDS011;64044;59.904;10.738;2023-02-21T03:11:18;0.88;;;0.68;;
74293;SDS011;64044;59.904;10.738;2023-02-21T03:16:22;1.25;;;0.70;;
74293;SDS011;64044;59.904;10.738;2023-02-21T03:19:00;1.30;;;0.85;;
74293;SDS011;64044;59.904;10.738;2023-02-21T03:21:30;0.93;;;0.70;;
74293;SDS011;64044;59.904;10.738;2023-02-21T03:24:01;1.77;;;1.02;;
74293;SDS011;64044;59.904;10.738;2023-02-21T03:26:31;0.85;;;0.50;;
74293;SDS011;64044;59.904;10.738;2023-02-21T03:29:00;1.98;;;0.93;;
74293;SDS011;64044;59.904;10.738;2023-02-21T03:31:28;1.95;;;0.80;;
74293;SDS011;64044;59.904;10.738;2023-02-21T03:34:00;1.38;;;0.80;;
74293;SDS011;64044;59.904;10.738;2023-02-21T03:36:26;0.70;;;0.52;;
74293;SDS011;64044;59.904;10.738;2023-02-21T03:38:52;1.33;;;0.70;;
74293;SDS011;64044;59.904;10.738;2023-02-21T03:41:17;0.63;;;0.50;;
74293;SDS011;64044;59.904;10.738;2023-02-21T03:43:43;1.60;;;0.68;;
74293;SDS011;64044;59.904;10.738;2023-02-21T03:46:09;0.30;;;0.30;;
74293;SDS011;64044;59.904;10.738;2023-02-21T03:48:34;1.05;;;0.90;;
74293;SDS011;64044;59.904;10.738;2023-02-21T03:51:00;0.60;;;0.30;;
74293;SDS011;64044;59.904;10.738;2023-02-21T03:53:26;0.95;;;0.40;;
74293;SDS011;64044;59.904;10.738;2023-02-21T03:55:51;0.73;;;0.40;;
74293;SDS011;64044;59.904;10.738;2023-02-21T03:58:17;0.50;;;0.45;;
74293;SDS011;64044;59.904;10.738;2023-02-21T04:00:43;1.70;;;0.43;;
74293;SDS011;64044;59.904;10.738;2023-02-21T04:03:09;1.30;;;0.73;;
74293;SDS011;64044;59.904;10.738;2023-02-21T04:05:35;0.95;;;0.60;;
74293;SDS011;64044;59.904;10.738;2023-02-21T04:08:01;0.40;;;0.40;;
74293;SDS011;64044;59.904;10.738;2023-02-21T04:10:28;2.22;;;0.30;;
74293;SDS011;64044;59.904;10.738;2023-02-21T04:12:53;0.73;;;0.55;;
74293;SDS011;64044;59.904;10.738;2023-02-21T04:15:19;1.30;;;0.77;;
74293;SDS011;64044;59.904;10.738;2023-02-21T04:17:45;0.93;;;0.73;;
74293;SDS011;64044;59.904;10.738;2023-02-21T04:20:10;0.75;;;0.57;;
74293;SDS011;64044;59.904;10.738;2023-02-21T04:22:37;0.75;;;0.28;;
74293;SDS011;64044;59.904;10.738;2023-02-21T04:25:04;0.68;;;0.30;;
74293;SDS011;64044;59.904;10.738;2023-02-21T04:27:30;0.73;;;0.38;;
74293;SDS011;64044;59.904;10.738;2023-02-21T04:29:56;0.30;;;0.30;;
74293;SDS011;64044;59.904;10.738;2023-02-21T04:32:22;0.30;;;0.25;;
74293;SDS011;64044;59.904;10.738;2023-02-21T04:34:47;0.75;;;0.30;;
74293;SDS011;64044;59.904;10.738;2023-02-21T04:37:13;0.60;;;0.30;;
74293;SDS011;64044;59.904;10.738;2023-02-21T04:39:39;0.50;;;0.32;;
74293;SDS011;64044;59.904;10.738;2023-02-21T04:42:05;0.60;;;0.40;;
74293;SDS011;64044;59.904;10.738;2023-02-21T04:44:30;0.77;;;0.60;;
74293;SDS011;64044;59.904;10.738;2023-02-21T04:46:56;0.20;;;0.20;;
74293;SDS011;64044;59.904;10.738;2023-02-21T04:49:22;1.65;;;0.47;;
74293;SDS011;64044;59.904;10.738;2023-02-21T04:51:51;1.50;;;0.40;;
74293;SDS011;64044;59.904;10.738;2023-02-21T04:54:17;1.83;;;0.20;;
74293;SDS011;64044;59.904;10.738;2023-02-21T04:56:43;0.70;;;0.30;;
74293;SDS011;64044;59.904;10.738;2023-02-21T04:59:09;0.38;;;0.20;;
74293;SDS011;64044;59.904;10.738;2023-02-21T05:01:35;0.60;;;0.15;;
74293;SDS011;64044;59.904;10.738;2023-02-21T05:04:01;0.10;;;0.10;;
74293;SDS011;64044;59.904;10.738;2023-02-21T05:06:27;2.03;;;0.20;;
74293;SDS011;64044;59.904;10.738;2023-02-21T05:08:54;0.50;;;0.13;;
74293;SDS011;64044;59.904;10.738;2023-02-21T05:11:21;1.90;;;0.22;;
74293;SDS011;64044;59.904;10.738;2023-02-21T05:13:48;0.10;;;0.00;;
74293;SDS011;64044;59.904;10.738;2023-02-21T05:16:14;0.10;;;0.05;;
74293;SDS011;64044;59.904;10.738;2023-02-21T05:18:41;0.22;;;0.00;;
74293;SDS011;64044;59.904;10.738;2023-02-21T05:21:07;0.45;;;0.10;;
74293;SDS011;64044;59.904;10.738;2023-02-21T05:23:33;0.20;;;0.10;;
74293;SDS011;64044;59.904;10.738;2023-02-21T05:26:03;0.10;;;0.08;;
74293;SDS011;64044;59.904;10.738;2023-02-21T05:28:29;2.63;;;0.10;;
74293;SDS011;64044;59.904;10.738;2023-02-21T05:30:55;0.10;;;0.10;;
74293;SDS011;64044;59.904;10.738;2023-02-21T05:33:21;0.30;;;0.10;;
74293;SDS011;64044;59.904;10.738;2023-02-21T05:35:48;1.67;;;0.10;;
74293;SDS011;64044;59.904;10.738;2023-02-21T05:38:15;0.20;;;0.10;;
74293;SDS011;64044;59.904;10.738;2023-02-21T05:40:45;1.67;;;0.00;;
74293;SDS011;64044;59.904;10.738;2023-02-21T05:43:11;0.08;;;0.08;;
74293;SDS011;64044;59.904;10.738;2023-02-21T05:45:37;0.55;;;0.30;;
74293;SDS011;64044;59.904;10.738;2023-02-21T05:48:03;0.40;;;0.13;;
74293;SDS011;64044;59.904;10.738;2023-02-21T05:50:29;0.35;;;0.15;;
74293;SDS011;64044;59.904;10.738;2023-02-21T05:52:55;0.43;;;0.30;;
74293;SDS011;64044;59.904;10.738;2023-02-21T05:55:22;0.60;;;0.15;;
74293;SDS011;64044;59.904;10.738;2023-02-21T05:57:48;0.17;;;0.08;;
74293;SDS011;64044;59.904;10.738;2023-02-21T06:00:19;0.40;;;0.10;;
74293;SDS011;64044;59.904;10.738;2023-02-21T06:02:52;3.55;;;0.30;;
74293;SDS011;64044;59.904;10.738;2023-02-21T06:05:18;2.47;;;0.50;;
74293;SDS011;64044;59.904;10.738;2023-02-21T06:07:45;0.55;;;0.10;;
74293;SDS011;64044;59.904;10.738;2023-02-21T06:10:11;0.55;;;0.15;;
74293;SDS011;64044;59.904;10.738;2023-02-21T06:12:38;0.05;;;0.03;;
74293;SDS011;64044;59.904;10.738;2023-02-21T06:15:04;0.13;;;0.10;;
74293;SDS011;64044;59.904;10.738;2023-02-21T06:17:34;0.55;;;0.22;;
74293;SDS011;64044;59.904;10.738;2023-02-21T06:20:01;0.35;;;0.20;;
74293;SDS011;64044;59.904;10.738;2023-02-21T06:22:27;0.40;;;0.10;;
74293;SDS011;64044;59.904;10.738;2023-02-21T06:24:53;2.15;;;0.20;;
74293;SDS011;64044;59.904;10.738;2023-02-21T06:27:19;1.23;;;0.30;;
74293;SDS011;64044;59.904;10.738;2023-02-21T06:29:44;0.60;;;0.30;;
74293;SDS011;64044;59.904;10.738;2023-02-21T06:32:10;0.55;;;0.32;;
74293;SDS011;64044;59.904;10.738;2023-02-21T06:34:36;0.32;;;0.22;;
74293;SDS011;64044;59.904;10.738;2023-02-21T06:37:02;2.05;;;0.10;;
74293;SDS011;64044;59.904;10.738;2023-02-21T06:39:28;0.20;;;0.20;;
74293;SDS011;64044;59.904;10.738;2023-02-21T06:41:53;1.23;;;0.28;;
74293;SDS011;64044;59.904;10.738;2023-02-21T06:44:19;1.73;;;0.10;;
74293;SDS011;64044;59.904;10.738;2023-02-21T06:46:46;0.93;;;0.63;;
74293;SDS011;64044;59.904;10.738;2023-02-21T06:49:14;3.10;;;0.30;;
74293;SDS011;64044;59.904;10.738;2023-02-21T06:51:41;0.20;;;0.20;;
74293;SDS011;64044;59.904;10.738;2023-02-21T06:54:07;2.28;;;0.40;;
74293;SDS011;64044;59.904;10.738;2023-02-21T06:56:33;0.80;;;0.30;;
74293;SDS011;64044;59.904;10.738;2023-02-21T06:59:00;0.40;;;0.22;;
74293;SDS011;64044;59.904;10.738;2023-02-21T07:01:26;1.67;;;0.35;;
74293;SDS011;64044;59.904;10.738;2023-02-21T07:03:54;2.25;;;0.40;;
74293;SDS011;64044;59.904;10.738;2023-02-21T07:06:20;0.75;;;0.30;;
74293;SDS011;64044;59.904;10.738;2023-02-21T07:08:46;1.98;;;0.65;;
74293;SDS011;64044;59.904;10.738;2023-02-21T07:11:12;0.50;;;0.25;;
74293;SDS011;64044;59.904;10.738;2023-02-21T07:13:39;4.40;;;0.70;;
74293;SDS011;64044;59.904;10.738;2023-02-21T07:16:05;0.45;;;0.35;;
74293;SDS011;64044;59.904;10.738;2023-02-21T07:18:31;2.22;;;0.45;;
74293;SDS011;64044;59.904;10.738;2023-02-21T07:20:57;0.20;;;0.20;;
74293;SDS011;64044;59.904;10.738;2023-02-21T07:23:23;0.52;;;0.20;;
74293;SDS011;64044;59.904;10.738;2023-02-21T07:25:49;1.05;;;0.52;;
74293;SDS011;64044;59.904;10.738;2023-02-21T07:28:15;0.75;;;0.22;;
74293;SDS011;64044;59.904;10.738;2023-02-21T07:30:41;1.38;;;0.38;;
74293;SDS011;64044;59.904;10.738;2023-02-21T07:33:07;3.10;;;0.40;;
74293;SDS011;64044;59.904;10.738;2023-02-21T07:35:33;0.35;;;0.35;;
74293;SDS011;64044;59.904;10.738;2023-02-21T07:37:58;2.92;;;0.40;;
74293;SDS011;64044;59.904;10.738;2023-02-21T07:40:24;1.40;;;0.43;;
74293;SDS011;64044;59.904;10.738;2023-02-21T07:42:50;2.28;;;0.65;;
74293;SDS011;64044;59.904;10.738;2023-02-21T07:45:16;2.85;;;0.40;;
74293;SDS011;64044;59.904;10.738;2023-02-21T07:47:41;1.00;;;0.25;;
74293;SDS011;64044;59.904;10.738;2023-02-21T07:50:10;3.25;;;0.55;;
74293;SDS011;64044;59.904;10.738;2023-02-21T07:52:36;2.20;;;0.50;;
74293;SDS011;64044;59.904;10.738;2023-02-21T07:55:02;0.45;;;0.40;;
74293;SDS011;64044;59.904;10.738;2023-02-21T07:57:28;2.72;;;0.45;;
74293;SDS011;64044;59.904;10.738;2023-02-21T07:59:53;2.13;;;0.52;;
74293;SDS011;64044;59.904;10.738;2023-02-21T08:02:19;1.85;;;0.52;;
74293;SDS011;64044;59.904;10.738;2023-02-21T08:04:48;1.20;;;0.47;;
74293;SDS011;64044;59.904;10.738;2023-02-21T08:07:15;2.10;;;0.47;;
74293;SDS011;64044;59.904;10.738;2023-02-21T08:09:40;1.35;;;0.82;;
74293;SDS011;64044;59.904;10.738;2023-02-21T08:12:06;1.10;;;0.50;;
74293;SDS011;64044;59.904;10.738;2023-02-21T08:14:32;1.30;;;0.35;;
74293;SDS011;64044;59.904;10.738;2023-02-21T08:16:58;0.93;;;0.28;;
74293;SDS011;64044;59.904;10.738;2023-02-21T08:19:23;5.50;;;0.43;;
74293;SDS011;64044;59.904;10.738;2023-02-21T08:21:49;2.45;;;0.52;;
74293;SDS011;64044;59.904;10.738;2023-02-21T08:24:16;0.70;;;0.22;;
74293;SDS011;64044;59.904;10.738;2023-02-21T08:26:42;2.75;;;0.45;;
74293;SDS011;64044;59.904;10.738;2023-02-21T08:29:09;1.13;;;0.43;;
74293;SDS011;64044;59.904;10.738;2023-02-21T08:31:39;3.53;;;0.30;;
74293;SDS011;64044;59.904;10.738;2023-02-21T08:34:05;2.45;;;0.43;;
74293;SDS011;64044;59.904;10.738;2023-02-21T08:36:33;0.85;;;0.47;;
74293;SDS011;64044;59.904;10.738;2023-02-21T08:39:00;0.20;;;0.20;;
74293;SDS011;64044;59.904;10.738;2023-02-21T08:41:40;4.60;;;0.88;;
74293;SDS011;64044;59.904;10.738;2023-02-21T08:44:08;4.47;;;0.50;;
74293;SDS011;64044;59.904;10.738;2023-02-21T08:46:35;5.03;;;0.73;;
74293;SDS011;64044;59.904;10.738;2023-02-21T08:49:01;1.75;;;0.80;;
74293;SDS011;64044;59.904;10.738;2023-02-21T08:51:28;2.67;;;0.57;;
74293;SDS011;64044;59.904;10.738;2023-02-21T08:53:54;2.58;;;0.50;;
74293;SDS011;64044;59.904;10.738;2023-02-21T08:56:21;4.25;;;0.75;;
74293;SDS011;64044;59.904;10.738;2023-02-21T08:58:48;1.80;;;0.50;;
74293;SDS011;64044;59.904;10.738;2023-02-21T09:01:17;2.17;;;0.40;;
74293;SDS011;64044;59.904;10.738;2023-02-21T09:03:43;4.78;;;0.70;;
74293;SDS011;64044;59.904;10.738;2023-02-21T09:06:09;1.58;;;0.68;;
74293;SDS011;64044;59.904;10.738;2023-02-21T09:08:34;0.90;;;0.50;;
74293;SDS011;64044;59.904;10.738;2023-02-21T09:11:02;1.80;;;0.88;;
74293;SDS011;64044;59.904;10.738;2023-02-21T09:13:28;4.97;;;0.63;;
74293;SDS011;64044;59.904;10.738;2023-02-21T09:15:57;3.55;;;0.40;;
74293;SDS011;64044;59.904;10.738;2023-02-21T09:18:27;4.07;;;0.70;;
74293;SDS011;64044;59.904;10.738;2023-02-21T09:20:54;0.60;;;0.20;;
74293;SDS011;64044;59.904;10.738;2023-02-21T09:23:22;2.95;;;0.40;;
74293;SDS011;64044;59.904;10.738;2023-02-21T09:25:49;0.77;;;0.40;;
74293;SDS011;64044;59.904;10.738;2023-02-21T09:28:16;4.10;;;0.57;;
74293;SDS011;64044;59.904;10.738;2023-02-21T09:30:42;2.50;;;0.60;;
74293;SDS011;64044;59.904;10.738;2023-02-21T09:33:08;0.82;;;0.40;;
74293;SDS011;64044;59.904;10.738;2023-02-21T09:35:34;2.45;;;0.35;;
74293;SDS011;64044;59.904;10.738;2023-02-21T09:38:00;3.63;;;0.50;;
74293;SDS011;64044;59.904;10.738;2023-02-21T09:40:39;2.35;;;0.40;;
74293;SDS011;64044;59.904;10.738;2023-02-21T09:43:12;0.70;;;0.47;;
74293;SDS011;64044;59.904;10.738;2023-02-21T09:45:43;5.60;;;0.85;;
74293;SDS011;64044;59.904;10.738;2023-02-21T09:48:27;1.23;;;0.43;;
74293;SDS011;64044;59.904;10.738;2023-02-21T09:50:55;2.38;;;0.40;;
74293;SDS011;64044;59.904;10.738;2023-02-21T09:53:31;3.67;;;0.95;;
74293;SDS011;64044;59.904;10.738;2023-02-21T09:56:06;1.13;;;0.40;;
74293;SDS011;64044;59.904;10.738;2023-02-21T09:58:55;1.60;;;0.55;;
74293;SDS011;64044;59.904;10.738;2023-02-21T10:04:01;3.10;;;0.50;;
74293;SDS011;64044;59.904;10.738;2023-02-21T10:06:52;7.78;;;0.50;;
74293;SDS011;64044;59.904;10.738;2023-02-21T10:12:16;5.85;;;0.57;;
74293;SDS011;64044;59.904;10.738;2023-02-21T10:17:58;1.55;;;0.30;;
74293;SDS011;64044;59.904;10.738;2023-02-21T10:20:29;4.15;;;0.60;;
74293;SDS011;64044;59.904;10.738;2023-02-21T10:23:02;0.77;;;0.57;;
74293;SDS011;64044;59.904;10.738;2023-02-21T10:25:38;1.23;;;0.32;;
74293;SDS011;64044;59.904;10.738;2023-02-21T10:28:11;2.20;;;0.47;;
74293;SDS011;64044;59.904;10.738;2023-02-21T10:30:43;6.78;;;0.57;;
74293;SDS011;64044;59.904;10.738;2023-02-21T10:33:09;1.27;;;0.25;;
74293;SDS011;64044;59.904;10.738;2023-02-21T10:35:35;2.20;;;0.45;;
74293;SDS011;64044;59.904;10.738;2023-02-21T10:38:03;6.20;;;1.08;;
74293;SDS011;64044;59.904;10.738;2023-02-21T10:43:26;4.18;;;0.40;;
74293;SDS011;64044;59.904;10.738;2023-02-21T10:46:17;3.30;;;0.52;;
74293;SDS011;64044;59.904;10.738;2023-02-21T10:48:50;0.32;;;0.32;;
74293;SDS011;64044;59.904;10.738;2023-02-21T10:54:26;1.58;;;0.50;;
74293;SDS011;64044;59.904;10.738;2023-02-21T10:56:52;5.60;;;0.70;;
74293;SDS011;64044;59.904;10.738;2023-02-21T10:59:28;4.15;;;0.22;;
74293;SDS011;64044;59.904;10.738;2023-02-21T11:01:57;1.13;;;0.22;;
74293;SDS011;64044;59.904;10.738;2023-02-21T11:04:29;13.02;;;1.70;;
74293;SDS011;64044;59.904;10.738;2023-02-21T11:09:40;1.20;;;0.30;;
74293;SDS011;64044;59.904;10.738;2023-02-21T11:19:51;1.38;;;0.60;;
74293;SDS011;64044;59.904;10.738;2023-02-21T11:22:25;1.50;;;0.45;;
74293;SDS011;64044;59.904;10.738;2023-02-21T11:30:27;1.90;;;0.20;;
74293;SDS011;64044;59.904;10.738;2023-02-21T11:32:55;2.10;;;1.05;;
74293;SDS011;64044;59.904;10.738;2023-02-21T11:35:26;1.85;;;0.40;;
74293;SDS011;64044;59.904;10.738;2023-02-21T11:43:25;8.73;;;0.70;;
74293;SDS011;64044;59.904;10.738;2023-02-21T11:48:30;1.30;;;0.30;;
74293;SDS011;64044;59.904;10.738;2023-02-21T11:51:25;2.33;;;0.60;;
74293;SDS011;64044;59.904;10.738;2023-02-21T11:53:56;1.25;;;0.40;;
74293;SDS011;64044;59.904;10.738;2023-02-21T11:58:59;0.50;;;0.40;;
74293;SDS011;64044;59.904;10.738;2023-02-21T12:04:27;3.97;;;0.50;;
74293;SDS011;64044;59.904;10.738;2023-02-21T12:10:17;4.82;;;0.90;;
74293;SDS011;64044;59.904;10.738;2023-02-21T12:27:01;3.15;;;1.08;;
74293;SDS011;64044;59.904;10.738;2023-02-21T12:29:43;0.95;;;0.32;;
74293;SDS011;64044;59.904;10.738;2023-02-21T12:44:12;1.13;;;0.50;;
74293;SDS011;64044;59.904;10.738;2023-02-21T12:52:19;3.33;;;0.70;;
74293;SDS011;64044;59.904;10.738;2023-02-21T12:55:25;1.45;;;0.47;;
74293;SDS011;64044;59.904;10.738;2023-02-21T12:58:02;0.70;;;0.47;;
74293;SDS011;64044;59.904;10.738;2023-02-21T13:00:37;2.83;;;0.95;;
74293;SDS011;64044;59.904;10.738;2023-02-21T13:03:32;4.22;;;0.98;;
74293;SDS011;64044;59.904;10.738;2023-02-21T13:06:23;2.40;;;0.77;;
74293;SDS011;64044;59.904;10.738;2023-02-21T13:12:08;1.77;;;0.70;;
74293;SDS011;64044;59.904;10.738;2023-02-21T13:17:27;2.05;;;0.80;;
74293;SDS011;64044;59.904;10.738;2023-02-21T13:20:06;12.30;;;1.75;;
74293;SDS011;64044;59.904;10.738;2023-02-21T13:22:44;6.85;;;2.40;;
74293;SDS011;64044;59.904;10.738;2023-02-21T13:28:40;0.88;;;0.60;;
74293;SDS011;64044;59.904;10.738;2023-02-21T13:31:16;1.63;;;0.65;;
74293;SDS011;64044;59.904;10.738;2023-02-21T13:33:48;4.50;;;0.90;;
74293;SDS011;64044;59.904;10.738;2023-02-21T13:38:45;2.08;;;1.10;;
74293;SDS011;64044;59.904;10.738;2023-02-21T13:41:20;9.40;;;2.55;;
74293;SDS011;64044;59.904;10.738;2023-02-21T13:43:51;13.18;;;1.90;;
74293;SDS011;64044;59.904;10.738;2023-02-21T14:08:26;3.72;;;1.75;;
74293;SDS011;64044;59.904;10.738;2023-02-21T14:10:58;4.18;;;1.30;;
74293;SDS011;64044;59.904;10.738;2023-02-21T14:16:08;6.68;;;1.13;;
74293;SDS011;64044;59.904;10.738;2023-02-21T14:18:51;1.98;;;0.70;;
74293;SDS011;64044;59.904;10.738;2023-02-21T14:21:38;0.65;;;0.40;;
74293;SDS011;64044;59.904;10.738;2023-02-21T14:24:14;10.13;;;4.22;;
74293;SDS011;64044;59.904;10.738;2023-02-21T14:26:52;5.60;;;2.45;;
74293;SDS011;64044;59.904;10.738;2023-02-21T14:36:58;13.27;;;5.65;;
74293;SDS011;64044;59.904;10.738;2023-02-21T14:39:30;12.68;;;5.15;;
74293;SDS011;64044;59.904;10.738;2023-02-21T14:42:24;12.32;;;5.57;;
74293;SDS011;64044;59.904;10.738;2023-02-21T14:50:13;0.30;;;0.30;;
74293;SDS011;64044;59.904;10.738;2023-02-21T14:58:12;14.40;;;4.88;;
74293;SDS011;64044;59.904;10.738;2023-02-21T15:03:41;8.63;;;3.42;;
74293;SDS011;64044;59.904;10.738;2023-02-21T15:06:18;11.90;;;4.13;;
74293;SDS011;64044;59.904;10.738;2023-02-21T15:08:47;24.77;;;9.20;;
74293;SDS011;64044;59.904;10.738;2023-02-21T15:13:50;7.97;;;2.83;;
74293;SDS011;64044;59.904;10.738;2023-02-21T15:16:59;8.02;;;2.95;;
74293;SDS011;64044;59.904;10.738;2023-02-21T15:19:34;10.35;;;3.67;;
74293;SDS011;64044;59.904;10.738;2023-02-21T15:27:31;17.58;;;6.75;;
74293;SDS011;64044;59.904;10.738;2023-02-21T15:30:35;18.90;;;7.63;;
74293;SDS011;64044;59.904;10.738;2023-02-21T15:35:22;8.95;;;3.22;;
74293;SDS011;64044;59.904;10.738;2023-02-21T15:37:52;16.33;;;4.20;;
74293;SDS011;64044;59.904;10.738;2023-02-21T15:40:22;13.07;;;4.10;;
74293;SDS011;64044;59.904;10.738;2023-02-21T15:42:50;17.17;;;6.15;;
74293;SDS011;64044;59.904;10.738;2023-02-21T15:48:00;14.55;;;4.93;;
74293;SDS011;64044;59.904;10.738;2023-02-21T15:50:38;18.35;;;6.80;;
74293;SDS011;64044;59.904;10.738;2023-02-21T15:53:22;15.23;;;4.07;;
74293;SDS011;64044;59.904;10.738;2023-02-21T15:55:50;11.48;;;3.17;;
74293;SDS011;64044;59.904;10.738;2023-02-21T15:58:24;10.38;;;3.30;;
74293;SDS011;64044;59.904;10.738;2023-02-21T16:06:12;5.20;;;1.15;;
74293;SDS011;64044;59.904;10.738;2023-02-21T16:08:56;2.35;;;1.08;;
74293;SDS011;64044;59.904;10.738;2023-02-21T16:14:16;5.95;;;1.55;;
74293;SDS011;64044;59.904;10.738;2023-02-21T16:16:46;6.03;;;1.90;;
74293;SDS011;64044;59.904;10.738;2023-02-21T16:19:20;6.40;;;1.30;;
74293;SDS011;64044;59.904;10.738;2023-02-21T16:21:47;3.83;;;1.65;;
74293;SDS011;64044;59.904;10.738;2023-02-21T16:24:35;5.72;;;1.88;;
74293;SDS011;64044;59.904;10.738;2023-02-21T16:27:03;6.07;;;3.58;;
74293;SDS011;64044;59.904;10.738;2023-02-21T16:29:33;7.55;;;4.35;;
74293;SDS011;64044;59.904;10.738;2023-02-21T16:31:58;10.75;;;3.85;;
74293;SDS011;64044;59.904;10.738;2023-02-21T16:34:25;6.55;;;2.50;;
74293;SDS011;64044;59.904;10.738;2023-02-21T16:37:04;3.70;;;1.88;;
74293;SDS011;64044;59.904;10.738;2023-02-21T16:39:33;3.83;;;1.70;;
74293;SDS011;64044;59.904;10.738;2023-02-21T16:41:59;6.05;;;2.15;;
74293;SDS011;64044;59.904;10.738;2023-02-21T16:44:25;6.63;;;2.50;;
74293;SDS011;64044;59.904;10.738;2023-02-21T16:46:51;4.65;;;2.00;;
74293;SDS011;64044;59.904;10.738;2023-02-21T16:49:17;6.47;;;2.38;;
74293;SDS011;64044;59.904;10.738;2023-02-21T16:51:42;14.43;;;2.28;;
74293;SDS011;64044;59.904;10.738;2023-02-21T16:54:09;6.68;;;2.28;;
74293;SDS011;64044;59.904;10.738;2023-02-21T16:56:36;14.23;;;3.92;;
74293;SDS011;64044;59.904;10.738;2023-02-21T16:59:04;30.60;;;7.63;;
74293;SDS011;64044;59.904;10.738;2023-02-21T17:01:33;76.43;;;19.38;;
74293;SDS011;64044;59.904;10.738;2023-02-21T17:04:00;52.13;;;14.77;;
74293;SDS011;64044;59.904;10.738;2023-02-21T17:06:29;32.75;;;7.55;;
74293;SDS011;64044;59.904;10.738;2023-02-21T17:08:55;17.08;;;4.32;;
74293;SDS011;64044;59.904;10.738;2023-02-21T17:11:22;7.25;;;2.72;;
74293;SDS011;64044;59.904;10.738;2023-02-21T17:13:49;8.85;;;3.28;;
74293;SDS011;64044;59.904;10.738;2023-02-21T17:16:15;7.07;;;2.65;;
74293;SDS011;64044;59.904;10.738;2023-02-21T17:18:44;7.18;;;2.47;;
74293;SDS011;64044;59.904;10.738;2023-02-21T17:21:10;13.15;;;2.20;;
74293;SDS011;64044;59.904;10.738;2023-02-21T17:23:36;7.32;;;1.88;;
74293;SDS011;64044;59.904;10.738;2023-02-21T17:26:02;6.18;;;2.22;;
74293;SDS011;64044;59.904;10.738;2023-02-21T17:28:28;9.23;;;2.08;;
74293;SDS011;64044;59.904;10.738;2023-02-21T17:30:54;5.55;;;2.03;;
74293;SDS011;64044;59.904;10.738;2023-02-21T17:33:20;5.10;;;1.63;;
74293;SDS011;64044;59.904;10.738;2023-02-21T17:35:46;6.90;;;1.73;;
74293;SDS011;64044;59.904;10.738;2023-02-21T17:38:12;7.22;;;1.80;;
74293;SDS011;64044;59.904;10.738;2023-02-21T17:40:38;5.78;;;1.95;;
74293;SDS011;64044;59.904;10.738;2023-02-21T17:43:03;9.90;;;2.95;;
74293;SDS011;64044;59.904;10.738;2023-02-21T17:45:32;10.13;;;2.75;;
74293;SDS011;64044;59.904;10.738;2023-02-21T17:48:00;9.30;;;3.08;;
74293;SDS011;64044;59.904;10.738;2023-02-21T17:50:27;7.93;;;3.72;;
74293;SDS011;64044;59.904;10.738;2023-02-21T17:52:53;7.00;;;3.13;;
74293;SDS011;64044;59.904;10.738;2023-02-21T17:55:21;10.57;;;4.45;;
74293;SDS011;64044;59.904;10.738;2023-02-21T17:57:50;12.30;;;4.18;;
74293;SDS011;64044;59.904;10.738;2023-02-21T18:00:17;10.13;;;4.05;;
74293;SDS011;64044;59.904;10.738;2023-02-21T18:02:46;14.02;;;4.72;;
74293;SDS011;64044;59.904;10.738;2023-02-21T18:05:12;10.55;;;4.22;;
74293;SDS011;64044;59.904;10.738;2023-02-21T18:07:38;15.15;;;5.75;;
74293;SDS011;64044;59.904;10.738;2023-02-21T18:10:05;12.93;;;5.43;;
74293;SDS011;64044;59.904;10.738;2023-02-21T18:12:31;12.55;;;5.55;;
74293;SDS011;64044;59.904;10.738;2023-02-21T18:14:59;16.08;;;5.72;;